Tokyo Maru — JG5666 — position and weather

sailwx.info

Track history (hours):
 
Tides and Currents Weather Stations Pressure Air Temp Water Temp Dewpoint Dewpoint Depression Visibility Wind Speed Wind Dir Waves Ship Positions

Tokyo Maru

Last reported at 2018-Jun-17 21:37 UTC. Time now 2018-Jun-18 15:19 UTC.
Position N 35°38' E 139°46'.

Length 40 m; draft 4 m.

Type: Tug. MMSI: 431100997.

Date/timePositionNaut miles runAvg speedWind from/ knotsBaromVisibWave heightAir tempDewpointWater temp
2018-Jun-17 21:37N 35°38' E 139°46'0 1.0
2018-Jun-17 21:30N 35°38' E 139°46'2 1.1
2018-Jun-17 19:58N 35°36' E 139°46'2 0.3
2018-Jun-17 13:51N 35°38' E 139°46'0 0.0
2018-Jun-17 13:23N 35°38' E 139°46'0 0.1
2018-Jun-17 10:30N 35°38' E 139°46'2 3.5
2018-Jun-17 10:00N 35°37' E 139°46'0 0.9
2018-Jun-17 09:30N 35°36' E 139°46'0 0.2
2018-Jun-17 08:39N 35°36' E 139°46'2 9.0
2018-Jun-17 08:26N 35°38' E 139°45'0 0.1
2018-Jun-17 07:42N 35°38' E 139°46'2 8.1
2018-Jun-17 07:30N 35°37' E 139°46'1 1.1
2018-Jun-17 07:00N 35°36' E 139°47'2 0.3
2018-Jun-17 00:06N 35°38' E 139°46'110.7
2018-Jun-16 23:59N 35°37' E 139°46'1 1.5
2018-Jun-16 23:04N 35°36' E 139°47'0 5.9
2018-Jun-16 22:59N 35°35' E 139°47'2 4.3
2018-Jun-16 22:29N 35°34' E 139°49'5 0.2
2018-Jun-15 21:14N 35°38' E 139°46'2 6.6
2018-Jun-15 20:57N 35°37' E 139°48'0 0.8
2018-Jun-15 20:30N 35°37' E 139°48'2 3.9
2018-Jun-15 19:57N 35°35' E 139°47'0 0.1
2018-Jun-15 19:30N 35°35' E 139°47'0 0.0
2018-Jun-15 19:00N 35°35' E 139°47'0 0.0
2018-Jun-15 18:30N 35°35' E 139°47'0 0.0
2018-Jun-15 18:00N 35°35' E 139°47'2 4.1
2018-Jun-15 17:30N 35°37' E 139°46'0 0.2
2018-Jun-15 14:59N 35°37' E 139°46'1 1.6
2018-Jun-15 14:28N 35°36' E 139°47'1 1.8
2018-Jun-15 13:59N 35°37' E 139°46'1 2.3
2018-Jun-15 13:24N 35°38' E 139°46'0 0.1
2018-Jun-15 12:45N 35°38' E 139°46'0 0.2
2018-Jun-15 12:30N 35°38' E 139°46'0 0.6
2018-Jun-15 11:41N 35°38' E 139°46'2 8.7
2018-Jun-15 11:29N 35°37' E 139°46'5 8.9
2018-Jun-15 10:55N 35°33' E 139°50'1 1.2
2018-Jun-15 10:30N 35°33' E 139°50'5 4.2
2018-Jun-15 09:22N 35°37' E 139°46'2 5.8
2018-Jun-15 08:59N 35°35' E 139°48'1 1.1
2018-Jun-15 08:30N 35°35' E 139°48'1 1.2
2018-Jun-15 07:42N 35°34' E 139°49'2 8.5
2018-Jun-15 07:30N 35°35' E 139°48'2 2.6
2018-Jun-15 06:53N 35°37' E 139°47'1 3.4
2018-Jun-15 06:30N 35°35' E 139°47'1 2.3
2018-Jun-15 05:55N 35°36' E 139°46'2 0.2
2018-Jun-14 21:37N 35°38' E 139°46'110.6
2018-Jun-14 21:30N 35°37' E 139°46'1 2.0
2018-Jun-14 21:00N 35°36' E 139°47'0 0.7
2018-Jun-14 20:30N 35°37' E 139°47'1 0.1
2018-Jun-14 10:39N 35°38' E 139°46'211.2
2018-Jun-14 10:30N 35°36' E 139°47'1 1.1
2018-Jun-14 09:58N 35°36' E 139°47'2 5.3
2018-Jun-14 09:30N 35°34' E 139°49'1 1.2
2018-Jun-14 08:59N 35°35' E 139°49'3 4.1
2018-Jun-14 08:11N 35°37' E 139°46'0 0.7
2018-Jun-14 07:44N 35°37' E 139°46'1 2.7
2018-Jun-14 07:21N 35°38' E 139°46'0 0.0
2018-Jun-14 06:55N 35°38' E 139°46'0 0.0
2018-Jun-14 06:21N 35°38' E 139°46'0 0.0
2018-Jun-13 22:34N 35°38' E 139°46'0 0.0
2018-Jun-13 22:22N 35°38' E 139°46'0 0.0
2018-Jun-13 21:57N 35°38' E 139°46'0 0.0
2018-Jun-13 21:05N 35°38' E 139°46'0 0.0
2018-Jun-13 20:52N 35°38' E 139°46'0 0.0
2018-Jun-13 20:24N 35°38' E 139°46'0 0.0
2018-Jun-13 19:56N 35°38' E 139°46'0 0.0
2018-Jun-13 18:08N 35°38' E 139°46'0 0.0
2018-Jun-13 17:59N 35°38' E 139°46'0 0.0
2018-Jun-13 16:51N 35°38' E 139°46'0 0.0
2018-Jun-13 13:45N 35°38' E 139°46'0 0.0
2018-Jun-13 13:29N 35°38' E 139°46'0 0.0
2018-Jun-13 12:59N 35°38' E 139°46'0 0.0
2018-Jun-13 12:29N 35°38' E 139°46'0 0.0
2018-Jun-13 11:56N 35°38' E 139°46'0 0.0
2018-Jun-13 11:30N 35°38' E 139°46'0 0.0
2018-Jun-13 11:00N 35°38' E 139°46'0 0.0
2018-Jun-13 10:30N 35°38' E 139°46'0 0.0
2018-Jun-13 10:00N 35°38' E 139°46'0 0.0
2018-Jun-13 09:29N 35°38' E 139°46'0 0.0
2018-Jun-13 08:59N 35°38' E 139°46'0 0.0
2018-Jun-13 08:14N 35°38' E 139°46'0 0.0
2018-Jun-13 07:58N 35°38' E 139°46'0 0.0
2018-Jun-13 07:27N 35°38' E 139°46'0 0.0
2018-Jun-13 06:36N 35°38' E 139°46'0 0.0
2018-Jun-13 06:29N 35°38' E 139°46'0 0.0
2018-Jun-13 05:41N 35°38' E 139°46'0 0.0
2018-Jun-13 05:12N 35°38' E 139°46'0 0.0
2018-Jun-13 05:00N 35°38' E 139°46'0 0.0
2018-Jun-12 22:47N 35°38' E 139°46'0 0.0
2018-Jun-12 22:24N 35°38' E 139°46'0 0.0
2018-Jun-12 21:44N 35°38' E 139°46'0 0.0
2018-Jun-12 21:30N 35°38' E 139°46'0 0.0
2018-Jun-12 20:16N 35°38' E 139°46'0 0.0
2018-Jun-12 16:43N 35°38' E 139°46'0 0.0
2018-Jun-12 15:19N 35°38' E 139°46'0 0.0
2018-Jun-12 15:00N 35°38' E 139°46'0 0.0
2018-Jun-12 14:30N 35°38' E 139°46'0 0.0
2018-Jun-12 13:59N 35°38' E 139°46'0 0.0
2018-Jun-12 13:14N 35°38' E 139°46'0 0.0
2018-Jun-12 12:54N 35°38' E 139°46'0 0.0
2018-Jun-12 11:59N 35°38' E 139°46'0 0.0
2018-Jun-12 11:02N 35°38' E 139°46'0 0.0
2018-Jun-12 11:00N 35°38' E 139°46'0 0.0
2018-Jun-12 10:25N 35°38' E 139°46'2 2.0
2018-Jun-12 09:31N 35°36' E 139°46'0 2.5
2018-Jun-12 09:30N 35°36' E 139°46'2 4.2
2018-Jun-12 09:00N 35°35' E 139°48'3 4.5
2018-Jun-12 08:24N 35°37' E 139°46'1 0.0
2018-Jun-11 13:06N 35°38' E 139°46'0 0.7
2018-Jun-11 12:52N 35°37' E 139°46'0 0.2
2018-Jun-11 10:47N 35°37' E 139°46'4 2.2
2018-Jun-11 08:56N 35°34' E 139°49'4 4.1
2018-Jun-11 07:52N 35°37' E 139°46'0 0.6
2018-Jun-11 07:28N 35°37' E 139°46'2 4.6
2018-Jun-11 06:58N 35°35' E 139°47'2 0.2
2018-Jun-10 22:41N 35°37' E 139°46'1 4.5
2018-Jun-10 22:30N 35°36' E 139°46'1 2.7
2018-Jun-10 21:59N 35°35' E 139°47'2 3.5
2018-Jun-10 21:24N 35°34' E 139°49'3 5.9
2018-Jun-10 20:56N 35°36' E 139°48'1 2.0
2018-Jun-10 20:30N 35°37' E 139°48'1 1.3
2018-Jun-10 19:56N 35°36' E 139°48'2 0.1
2018-Jun-09 23:48N 35°37' E 139°46'2 4.5
2018-Jun-09 23:27N 35°36' E 139°47'1 3.0
2018-Jun-09 23:00N 35°35' E 139°48'0 0.3
2018-Jun-09 22:30N 35°35' E 139°47'3 0.2
2018-Jun-09 10:31N 35°37' E 139°46'111.0
2018-Jun-09 10:24N 35°36' E 139°47'0 0.9
2018-Jun-09 09:57N 35°36' E 139°47'2 1.0
2018-Jun-09 07:44N 35°38' E 139°46'2 9.8
2018-Jun-09 07:30N 35°36' E 139°47'3 0.5
2018-Jun-09 01:31N 35°39' E 139°46'013.6
2018-Jun-09 01:30N 35°39' E 139°46'1 1.0
2018-Jun-09 00:59N 35°39' E 139°47'1 1.1
2018-Jun-09 00:30N 35°39' E 139°46'4 8.2
2018-Jun-09 00:01N 35°35' E 139°48'3 0.2
2018-Jun-08 07:41N 35°37' E 139°46'1 1.7
2018-Jun-08 07:24N 35°37' E 139°46'0 1.1
2018-Jun-08 07:00N 35°37' E 139°46'  
Track history (hours):
 
Tides and Currents Weather Stations Pressure Air Temp Water Temp Dewpoint Dewpoint Depression Visibility Wind Speed Wind Dir Waves Ship Positions

Tokyo Maru

Last reported at 2018-Jun-17 21:37 UTC. Time now 2018-Jun-18 15:19 UTC.
Position N 35°38' E 139°46'.

Length 40 m; draft 4 m.

Type: Tug. MMSI: 431100997.

Date/timePositionNaut miles runAvg speedWind from/ knotsBaromVisibWave heightAir tempDewpointWater temp
2018-Jun-17 21:37N 35°38' E 139°46'0 1.0
2018-Jun-17 21:30N 35°38' E 139°46'2 1.1
2018-Jun-17 19:58N 35°36' E 139°46'2 0.3
2018-Jun-17 13:51N 35°38' E 139°46'0 0.0
2018-Jun-17 13:23N 35°38' E 139°46'0 0.1
2018-Jun-17 10:30N 35°38' E 139°46'2 3.5
2018-Jun-17 10:00N 35°37' E 139°46'0 0.9
2018-Jun-17 09:30N 35°36' E 139°46'0 0.2
2018-Jun-17 08:39N 35°36' E 139°46'2 9.0
2018-Jun-17 08:26N 35°38' E 139°45'0 0.1
2018-Jun-17 07:42N 35°38' E 139°46'2 8.1
2018-Jun-17 07:30N 35°37' E 139°46'1 1.1
2018-Jun-17 07:00N 35°36' E 139°47'2 0.3
2018-Jun-17 00:06N 35°38' E 139°46'110.7
2018-Jun-16 23:59N 35°37' E 139°46'1 1.5
2018-Jun-16 23:04N 35°36' E 139°47'0 5.9
2018-Jun-16 22:59N 35°35' E 139°47'2 4.3
2018-Jun-16 22:29N 35°34' E 139°49'5 0.2
2018-Jun-15 21:14N 35°38' E 139°46'2 6.6
2018-Jun-15 20:57N 35°37' E 139°48'0 0.8
2018-Jun-15 20:30N 35°37' E 139°48'2 3.9
2018-Jun-15 19:57N 35°35' E 139°47'0 0.1
2018-Jun-15 19:30N 35°35' E 139°47'0 0.0
2018-Jun-15 19:00N 35°35' E 139°47'0 0.0
2018-Jun-15 18:30N 35°35' E 139°47'0 0.0
2018-Jun-15 18:00N 35°35' E 139°47'2 4.1
2018-Jun-15 17:30N 35°37' E 139°46'0 0.2
2018-Jun-15 14:59N 35°37' E 139°46'1 1.6
2018-Jun-15 14:28N 35°36' E 139°47'1 1.8
2018-Jun-15 13:59N 35°37' E 139°46'1 2.3
2018-Jun-15 13:24N 35°38' E 139°46'0 0.1
2018-Jun-15 12:45N 35°38' E 139°46'0 0.2
2018-Jun-15 12:30N 35°38' E 139°46'0 0.6
2018-Jun-15 11:41N 35°38' E 139°46'2 8.7
2018-Jun-15 11:29N 35°37' E 139°46'5 8.9
2018-Jun-15 10:55N 35°33' E 139°50'1 1.2
2018-Jun-15 10:30N 35°33' E 139°50'5 4.2
2018-Jun-15 09:22N 35°37' E 139°46'2 5.8
2018-Jun-15 08:59N 35°35' E 139°48'1 1.1
2018-Jun-15 08:30N 35°35' E 139°48'1 1.2
2018-Jun-15 07:42N 35°34' E 139°49'2 8.5
2018-Jun-15 07:30N 35°35' E 139°48'2 2.6
2018-Jun-15 06:53N 35°37' E 139°47'1 3.4
2018-Jun-15 06:30N 35°35' E 139°47'1 2.3
2018-Jun-15 05:55N 35°36' E 139°46'2 0.2
2018-Jun-14 21:37N 35°38' E 139°46'110.6
2018-Jun-14 21:30N 35°37' E 139°46'1 2.0
2018-Jun-14 21:00N 35°36' E 139°47'0 0.7
2018-Jun-14 20:30N 35°37' E 139°47'1 0.1
2018-Jun-14 10:39N 35°38' E 139°46'211.2
2018-Jun-14 10:30N 35°36' E 139°47'1 1.1
2018-Jun-14 09:58N 35°36' E 139°47'2 5.3
2018-Jun-14 09:30N 35°34' E 139°49'1 1.2
2018-Jun-14 08:59N 35°35' E 139°49'3 4.1
2018-Jun-14 08:11N 35°37' E 139°46'0 0.7
2018-Jun-14 07:44N 35°37' E 139°46'1 2.7
2018-Jun-14 07:21N 35°38' E 139°46'0 0.0
2018-Jun-14 06:55N 35°38' E 139°46'0 0.0
2018-Jun-14 06:21N 35°38' E 139°46'0 0.0
2018-Jun-13 22:34N 35°38' E 139°46'0 0.0
2018-Jun-13 22:22N 35°38' E 139°46'0 0.0
2018-Jun-13 21:57N 35°38' E 139°46'0 0.0
2018-Jun-13 21:05N 35°38' E 139°46'0 0.0
2018-Jun-13 20:52N 35°38' E 139°46'0 0.0
2018-Jun-13 20:24N 35°38' E 139°46'0 0.0
2018-Jun-13 19:56N 35°38' E 139°46'0 0.0
2018-Jun-13 18:08N 35°38' E 139°46'0 0.0
2018-Jun-13 17:59N 35°38' E 139°46'0 0.0
2018-Jun-13 16:51N 35°38' E 139°46'0 0.0
2018-Jun-13 13:45N 35°38' E 139°46'0 0.0
2018-Jun-13 13:29N 35°38' E 139°46'0 0.0
2018-Jun-13 12:59N 35°38' E 139°46'0 0.0
2018-Jun-13 12:29N 35°38' E 139°46'0 0.0
2018-Jun-13 11:56N 35°38' E 139°46'0 0.0
2018-Jun-13 11:30N 35°38' E 139°46'0 0.0
2018-Jun-13 11:00N 35°38' E 139°46'0 0.0
2018-Jun-13 10:30N 35°38' E 139°46'0 0.0
2018-Jun-13 10:00N 35°38' E 139°46'0 0.0
2018-Jun-13 09:29N 35°38' E 139°46'0 0.0
2018-Jun-13 08:59N 35°38' E 139°46'0 0.0
2018-Jun-13 08:14N 35°38' E 139°46'0 0.0
2018-Jun-13 07:58N 35°38' E 139°46'0 0.0
2018-Jun-13 07:27N 35°38' E 139°46'0 0.0
2018-Jun-13 06:36N 35°38' E 139°46'0 0.0
2018-Jun-13 06:29N 35°38' E 139°46'0 0.0
2018-Jun-13 05:41N 35°38' E 139°46'0 0.0
2018-Jun-13 05:12N 35°38' E 139°46'0 0.0
2018-Jun-13 05:00N 35°38' E 139°46'0 0.0
2018-Jun-12 22:47N 35°38' E 139°46'0 0.0
2018-Jun-12 22:24N 35°38' E 139°46'0 0.0
2018-Jun-12 21:44N 35°38' E 139°46'0 0.0
2018-Jun-12 21:30N 35°38' E 139°46'0 0.0
2018-Jun-12 20:16N 35°38' E 139°46'0 0.0
2018-Jun-12 16:43N 35°38' E 139°46'0 0.0
2018-Jun-12 15:19N 35°38' E 139°46'0 0.0
2018-Jun-12 15:00N 35°38' E 139°46'0 0.0
2018-Jun-12 14:30N 35°38' E 139°46'0 0.0
2018-Jun-12 13:59N 35°38' E 139°46'0 0.0
2018-Jun-12 13:14N 35°38' E 139°46'0 0.0
2018-Jun-12 12:54N 35°38' E 139°46'0 0.0
2018-Jun-12 11:59N 35°38' E 139°46'0 0.0
2018-Jun-12 11:02N 35°38' E 139°46'0 0.0
2018-Jun-12 11:00N 35°38' E 139°46'0 0.0
2018-Jun-12 10:25N 35°38' E 139°46'2 2.0
2018-Jun-12 09:31N 35°36' E 139°46'0 2.5
2018-Jun-12 09:30N 35°36' E 139°46'2 4.2
2018-Jun-12 09:00N 35°35' E 139°48'3 4.5
2018-Jun-12 08:24N 35°37' E 139°46'1 0.0
2018-Jun-11 13:06N 35°38' E 139°46'0 0.7
2018-Jun-11 12:52N 35°37' E 139°46'0 0.2
2018-Jun-11 10:47N 35°37' E 139°46'4 2.2
2018-Jun-11 08:56N 35°34' E 139°49'4 4.1
2018-Jun-11 07:52N 35°37' E 139°46'0 0.6
2018-Jun-11 07:28N 35°37' E 139°46'2 4.6
2018-Jun-11 06:58N 35°35' E 139°47'2 0.2
2018-Jun-10 22:41N 35°37' E 139°46'1 4.5
2018-Jun-10 22:30N 35°36' E 139°46'1 2.7
2018-Jun-10 21:59N 35°35' E 139°47'2 3.5
2018-Jun-10 21:24N 35°34' E 139°49'3 5.9
2018-Jun-10 20:56N 35°36' E 139°48'1 2.0
2018-Jun-10 20:30N 35°37' E 139°48'1 1.3
2018-Jun-10 19:56N 35°36' E 139°48'2 0.1
2018-Jun-09 23:48N 35°37' E 139°46'2 4.5
2018-Jun-09 23:27N 35°36' E 139°47'1 3.0
2018-Jun-09 23:00N 35°35' E 139°48'0 0.3
2018-Jun-09 22:30N 35°35' E 139°47'3 0.2
2018-Jun-09 10:31N 35°37' E 139°46'111.0
2018-Jun-09 10:24N 35°36' E 139°47'0 0.9
2018-Jun-09 09:57N 35°36' E 139°47'2 1.0
2018-Jun-09 07:44N 35°38' E 139°46'2 9.8
2018-Jun-09 07:30N 35°36' E 139°47'3 0.5
2018-Jun-09 01:31N 35°39' E 139°46'013.6
2018-Jun-09 01:30N 35°39' E 139°46'1 1.0
2018-Jun-09 00:59N 35°39' E 139°47'1 1.1
2018-Jun-09 00:30N 35°39' E 139°46'4 8.2
2018-Jun-09 00:01N 35°35' E 139°48'3 0.2
2018-Jun-08 07:41N 35°37' E 139°46'1 1.7
2018-Jun-08 07:24N 35°37' E 139°46'0 1.1
2018-Jun-08 07:00N 35°37' E 139°46'  

Dump ship's entire track history